LVJKD SA37-SADF
Flight info
| Callsign | LVJKD |
|---|---|
| Flight time | N/A |
| Altitude | 26998 |
| Route | UTRAX1C UTRAX UW24 SNT DCT TRINI |
| Aircraft | B350/L-SBGRW/S |
Departure
| Time | N/A |
|---|---|
| Airport | SA37 |
Arrival
| Time | 2026-04-11 23:23 |
|---|---|
| Airport | San Fernando Airport (SADF) |
| Time | Latitude | Longitude | Altitude | Speed | Heading |
|---|---|---|---|---|---|
| 2026-04-11 21:55 | -31.65599 | -64.39576 | 1775 ft | 0 kts | 270° |
| 2026-04-11 22:02 | -31.65599 | -64.39592 | 1775 ft | 3 kts | 270° |
| 2026-04-11 22:02 | -31.65599 | -64.39597 | 1775 ft | 0 kts | 270° |
| 2026-04-11 22:07 | -31.65599 | -64.39602 | 1775 ft | 1 kts | 269° |
| 2026-04-11 22:08 | -31.65601 | -64.39618 | 1775 ft | 2 kts | 243° |
| 2026-04-11 22:08 | -31.65616 | -64.39616 | 1775 ft | 3 kts | 118° |
| 2026-04-11 22:08 | -31.65621 | -64.39586 | 1775 ft | 6 kts | 97° |
| 2026-04-11 22:08 | -31.65625 | -64.39549 | 1775 ft | 5 kts | 97° |
| 2026-04-11 22:09 | -31.65628 | -64.39509 | 1775 ft | 4 kts | 59° |
| 2026-04-11 22:09 | -31.65615 | -64.39501 | 1776 ft | 0 kts | 8° |
| 2026-04-11 22:09 | -31.65613 | -64.39501 | 1776 ft | 5 kts | 9° |
| 2026-04-11 22:09 | -31.65281 | -64.39433 | 1787 ft | 89 kts | 10° |
| 2026-04-11 22:10 | -31.64475 | -64.39271 | 1900 ft | 135 kts | 10° |
| 2026-04-11 22:10 | -31.63479 | -64.39035 | 2261 ft | 157 kts | 19° |
| 2026-04-11 22:10 | -31.62466 | -64.38472 | 2669 ft | 164 kts | 31° |
| 2026-04-11 22:10 | -31.61554 | -64.37673 | 3015 ft | 168 kts | 55° |
| 2026-04-11 22:11 | -31.61145 | -64.36424 | 3377 ft | 166 kts | 92° |
| 2026-04-11 22:11 | -31.61406 | -64.35169 | 3812 ft | 158 kts | 117° |
| 2026-04-11 22:11 | -31.61896 | -64.34007 | 4149 ft | 161 kts | 116° |
| 2026-04-11 22:11 | -31.62476 | -64.32933 | 4676 ft | 153 kts | 121° |
| 2026-04-11 22:12 | -31.63153 | -64.31946 | 4978 ft | 160 kts | 130° |
| 2026-04-11 22:12 | -31.63767 | -64.30883 | 5293 ft | 158 kts | 99° |
| 2026-04-11 22:12 | -31.64057 | -64.29670 | 5727 ft | 155 kts | 102° |
| 2026-04-11 22:12 | -31.64368 | -64.28465 | 6074 ft | 157 kts | 103° |
| 2026-04-11 22:13 | -31.64691 | -64.27240 | 6395 ft | 160 kts | 103° |
| 2026-04-11 22:13 | -31.65040 | -64.25922 | 6473 ft | 178 kts | 103° |
| 2026-04-11 22:13 | -31.65421 | -64.24499 | 6695 ft | 185 kts | 103° |
| 2026-04-11 22:13 | -31.65806 | -64.23061 | 7001 ft | 186 kts | 103° |
| 2026-04-11 22:14 | -31.66192 | -64.21616 | 7308 ft | 187 kts | 103° |
| 2026-04-11 22:14 | -31.66580 | -64.20164 | 7602 ft | 188 kts | 103° |
| 2026-04-11 22:14 | -31.66971 | -64.18700 | 7888 ft | 190 kts | 103° |
| 2026-04-11 22:14 | -31.67366 | -64.17222 | 8171 ft | 191 kts | 103° |
| 2026-04-11 22:15 | -31.67763 | -64.15733 | 8448 ft | 193 kts | 103° |
| 2026-04-11 22:15 | -31.68166 | -64.14222 | 8724 ft | 194 kts | 103° |
| 2026-04-11 22:15 | -31.68570 | -64.12705 | 9015 ft | 198 kts | 103° |
| 2026-04-11 22:15 | -31.68982 | -64.11159 | 9402 ft | 199 kts | 103° |
| 2026-04-11 22:16 | -31.69393 | -64.09612 | 9786 ft | 200 kts | 103° |
| 2026-04-11 22:16 | -31.69810 | -64.08044 | 10150 ft | 202 kts | 103° |
| 2026-04-11 22:16 | -31.70232 | -64.06459 | 10507 ft | 204 kts | 103° |
| 2026-04-11 22:16 | -31.70654 | -64.04869 | 10856 ft | 206 kts | 104° |
| 2026-04-11 22:17 | -31.71084 | -64.03251 | 11203 ft | 208 kts | 104° |
| 2026-04-11 22:17 | -31.71514 | -64.01629 | 11544 ft | 210 kts | 104° |
| 2026-04-11 22:17 | -31.71949 | -63.99992 | 11883 ft | 212 kts | 104° |
| 2026-04-11 22:17 | -31.72386 | -63.98344 | 12215 ft | 213 kts | 105° |
| 2026-04-11 22:18 | -31.72827 | -63.96683 | 12564 ft | 215 kts | 105° |
| 2026-04-11 22:18 | -31.73269 | -63.95013 | 12959 ft | 216 kts | 105° |
| 2026-04-11 22:18 | -31.73712 | -63.93341 | 13347 ft | 216 kts | 105° |
| 2026-04-11 22:18 | -31.74160 | -63.91646 | 13726 ft | 217 kts | 105° |
| 2026-04-11 22:19 | -31.74606 | -63.89960 | 14095 ft | 218 kts | 105° |
| 2026-04-11 22:19 | -31.75054 | -63.88267 | 14458 ft | 219 kts | 105° |
| 2026-04-11 22:19 | -31.75503 | -63.86564 | 14817 ft | 220 kts | 105° |
| 2026-04-11 22:19 | -31.75954 | -63.84855 | 15170 ft | 220 kts | 105° |
| 2026-04-11 22:20 | -31.76409 | -63.83130 | 15519 ft | 221 kts | 105° |
| 2026-04-11 22:20 | -31.76866 | -63.81396 | 15865 ft | 222 kts | 105° |
| 2026-04-11 22:20 | -31.77328 | -63.79644 | 16206 ft | 223 kts | 105° |
| 2026-04-11 22:20 | -31.77785 | -63.77908 | 16536 ft | 224 kts | 105° |
| 2026-04-11 22:21 | -31.78244 | -63.76163 | 16861 ft | 225 kts | 105° |
| 2026-04-11 22:21 | -31.78704 | -63.74412 | 17181 ft | 225 kts | 105° |
| 2026-04-11 22:21 | -31.79166 | -63.72655 | 17496 ft | 226 kts | 105° |
| 2026-04-11 22:21 | -31.79628 | -63.70894 | 17805 ft | 227 kts | 105° |
| 2026-04-11 22:22 | -31.80092 | -63.69126 | 18111 ft | 228 kts | 105° |
| 2026-04-11 22:22 | -31.80562 | -63.67335 | 18414 ft | 228 kts | 105° |
| 2026-04-11 22:22 | -31.81029 | -63.65555 | 18699 ft | 229 kts | 105° |
| 2026-04-11 22:22 | -31.81497 | -63.63767 | 18986 ft | 230 kts | 105° |
| 2026-04-11 22:23 | -31.81966 | -63.61974 | 19277 ft | 230 kts | 105° |
| 2026-04-11 22:23 | -31.82435 | -63.60182 | 19550 ft | 231 kts | 105° |
| 2026-04-11 22:23 | -31.82907 | -63.58379 | 19819 ft | 232 kts | 105° |
| 2026-04-11 22:23 | -31.83380 | -63.56569 | 20087 ft | 233 kts | 105° |
| 2026-04-11 22:24 | -31.83856 | -63.54742 | 20355 ft | 233 kts | 105° |
| 2026-04-11 22:24 | -31.84332 | -63.52922 | 20626 ft | 234 kts | 105° |
| 2026-04-11 22:24 | -31.84808 | -63.51095 | 20900 ft | 235 kts | 105° |
| 2026-04-11 22:24 | -31.85285 | -63.49264 | 21178 ft | 236 kts | 105° |
| 2026-04-11 22:25 | -31.85763 | -63.47429 | 21458 ft | 236 kts | 105° |
| 2026-04-11 22:25 | -31.86243 | -63.45586 | 21744 ft | 237 kts | 105° |
| 2026-04-11 22:25 | -31.86722 | -63.43741 | 22032 ft | 238 kts | 105° |
| 2026-04-11 22:25 | -31.87209 | -63.41869 | 22328 ft | 238 kts | 105° |
| 2026-04-11 22:26 | -31.87691 | -63.40012 | 22624 ft | 239 kts | 105° |
| 2026-04-11 22:26 | -31.88176 | -63.38146 | 22925 ft | 240 kts | 105° |
| 2026-04-11 22:26 | -31.88515 | -63.36908 | 23120 ft | 241 kts | 114° |
| 2026-04-11 22:26 | -31.89450 | -63.35281 | 23446 ft | 241 kts | 130° |
| 2026-04-11 22:27 | -31.90823 | -63.33215 | 23872 ft | 241 kts | 130° |
| 2026-04-11 22:27 | -31.91858 | -63.31669 | 24173 ft | 242 kts | 131° |
| 2026-04-11 22:27 | -31.92906 | -63.30111 | 24484 ft | 243 kts | 131° |
| 2026-04-11 22:27 | -31.93949 | -63.28561 | 24794 ft | 243 kts | 131° |
| 2026-04-11 22:28 | -31.94995 | -63.27005 | 25106 ft | 244 kts | 131° |
| 2026-04-11 22:28 | -31.96044 | -63.25447 | 25420 ft | 244 kts | 131° |
| 2026-04-11 22:28 | -31.97095 | -63.23886 | 25734 ft | 245 kts | 131° |
| 2026-04-11 22:28 | -31.98149 | -63.22320 | 26047 ft | 245 kts | 131° |
| 2026-04-11 22:29 | -31.99202 | -63.20754 | 26353 ft | 246 kts | 132° |
| 2026-04-11 22:29 | -32.00267 | -63.19171 | 26653 ft | 246 kts | 132° |
| 2026-04-11 22:29 | -32.01324 | -63.17597 | 26944 ft | 247 kts | 132° |
| 2026-04-11 22:29 | -32.02401 | -63.15996 | 27050 ft | 256 kts | 132° |
| 2026-04-11 22:30 | -32.03529 | -63.14318 | 27047 ft | 267 kts | 131° |
| 2026-04-11 22:30 | -32.04693 | -63.12585 | 27039 ft | 274 kts | 131° |
| 2026-04-11 22:30 | -32.05884 | -63.10810 | 27035 ft | 280 kts | 131° |
| 2026-04-11 22:30 | -32.07100 | -63.08998 | 27032 ft | 286 kts | 131° |
| 2026-04-11 22:31 | -32.08350 | -63.07132 | 27032 ft | 291 kts | 131° |
| 2026-04-11 22:31 | -32.09612 | -63.05248 | 27032 ft | 296 kts | 131° |
| 2026-04-11 22:31 | -32.10897 | -63.03329 | 27026 ft | 301 kts | 130° |
| 2026-04-11 22:31 | -32.12199 | -63.01384 | 27024 ft | 305 kts | 130° |
| 2026-04-11 22:32 | -32.13517 | -62.99414 | 27024 ft | 309 kts | 130° |
| 2026-04-11 22:32 | -32.14851 | -62.97418 | 27023 ft | 313 kts | 130° |
| 2026-04-11 22:32 | -32.16199 | -62.95401 | 27023 ft | 316 kts | 130° |
| 2026-04-11 22:32 | -32.17525 | -62.93417 | 27023 ft | 319 kts | 129° |
| 2026-04-11 22:33 | -32.18904 | -62.91349 | 27023 ft | 322 kts | 129° |
| 2026-04-11 22:33 | -32.20297 | -62.89263 | 27022 ft | 325 kts | 129° |
| 2026-04-11 22:33 | -32.21693 | -62.87168 | 27023 ft | 328 kts | 129° |
| 2026-04-11 22:33 | -32.23101 | -62.85054 | 27024 ft | 330 kts | 129° |
| 2026-04-11 22:34 | -32.24520 | -62.82923 | 27024 ft | 332 kts | 129° |
| 2026-04-11 22:34 | -32.25944 | -62.80783 | 27024 ft | 334 kts | 129° |
| 2026-04-11 22:34 | -32.27393 | -62.78606 | 27028 ft | 337 kts | 129° |
| 2026-04-11 22:34 | -32.28847 | -62.76419 | 27032 ft | 342 kts | 129° |
| 2026-04-11 22:35 | -32.30321 | -62.74200 | 27031 ft | 347 kts | 129° |
| 2026-04-11 22:35 | -32.31827 | -62.71932 | 27030 ft | 352 kts | 129° |
| 2026-04-11 22:35 | -32.33341 | -62.69651 | 27029 ft | 355 kts | 129° |
| 2026-04-11 22:35 | -32.34867 | -62.67351 | 27027 ft | 358 kts | 129° |
| 2026-04-11 22:36 | -32.36406 | -62.65029 | 27027 ft | 360 kts | 129° |
| 2026-04-11 22:36 | -32.37962 | -62.62680 | 27026 ft | 362 kts | 129° |
| 2026-04-11 22:36 | -32.39512 | -62.60339 | 27028 ft | 364 kts | 129° |
| 2026-04-11 22:36 | -32.41068 | -62.57987 | 27031 ft | 365 kts | 129° |
| 2026-04-11 22:37 | -32.42627 | -62.55629 | 27034 ft | 366 kts | 129° |
| 2026-04-11 22:37 | -32.44192 | -62.53261 | 27037 ft | 367 kts | 129° |
| 2026-04-11 22:37 | -32.45759 | -62.50888 | 27039 ft | 368 kts | 129° |
| 2026-04-11 22:37 | -32.47328 | -62.48511 | 27042 ft | 368 kts | 129° |
| 2026-04-11 22:38 | -32.48911 | -62.46111 | 27045 ft | 369 kts | 129° |
| 2026-04-11 22:38 | -32.50487 | -62.43720 | 27048 ft | 369 kts | 129° |
| 2026-04-11 22:38 | -32.52063 | -62.41327 | 27051 ft | 370 kts | 129° |
| 2026-04-11 22:38 | -32.53641 | -62.38931 | 27054 ft | 370 kts | 129° |
| 2026-04-11 22:39 | -32.55218 | -62.36533 | 27055 ft | 371 kts | 129° |
| 2026-04-11 22:39 | -32.56809 | -62.34114 | 27051 ft | 371 kts | 128° |
| 2026-04-11 22:39 | -32.58236 | -62.31942 | 27043 ft | 371 kts | 128° |
| 2026-04-11 22:39 | -32.59837 | -62.29504 | 27045 ft | 371 kts | 128° |
| 2026-04-11 22:40 | -32.61420 | -62.27091 | 27045 ft | 371 kts | 128° |
| 2026-04-11 22:40 | -32.63000 | -62.24682 | 27045 ft | 371 kts | 128° |
| 2026-04-11 22:40 | -32.64577 | -62.22275 | 27046 ft | 371 kts | 128° |
| 2026-04-11 22:40 | -32.66154 | -62.19868 | 27046 ft | 371 kts | 128° |
| 2026-04-11 22:41 | -32.67731 | -62.17459 | 27047 ft | 371 kts | 128° |
| 2026-04-11 22:41 | -32.69259 | -62.15009 | 27042 ft | 371 kts | 124° |
| 2026-04-11 22:41 | -32.70736 | -62.12487 | 27050 ft | 371 kts | 124° |
| 2026-04-11 22:41 | -32.72202 | -62.09982 | 27047 ft | 371 kts | 124° |
| 2026-04-11 22:42 | -32.73670 | -62.07471 | 27049 ft | 371 kts | 124° |
| 2026-04-11 22:42 | -32.75139 | -62.04957 | 27049 ft | 371 kts | 124° |
| 2026-04-11 22:42 | -32.76609 | -62.02440 | 27049 ft | 371 kts | 124° |
| 2026-04-11 22:43 | -32.79549 | -61.97401 | 27050 ft | 371 kts | 124° |
| 2026-04-11 22:43 | -32.81022 | -61.94874 | 27050 ft | 372 kts | 124° |
| 2026-04-11 22:43 | -32.82489 | -61.92356 | 27051 ft | 372 kts | 124° |
| 2026-04-11 22:43 | -32.83954 | -61.89839 | 27051 ft | 372 kts | 124° |
| 2026-04-11 22:44 | -32.85423 | -61.87313 | 27052 ft | 372 kts | 124° |
| 2026-04-11 22:44 | -32.86889 | -61.84791 | 27052 ft | 372 kts | 124° |
| 2026-04-11 22:44 | -32.88355 | -61.82268 | 27052 ft | 372 kts | 124° |
| 2026-04-11 22:44 | -32.89820 | -61.79745 | 27053 ft | 372 kts | 124° |
| 2026-04-11 22:45 | -32.91296 | -61.77200 | 27053 ft | 373 kts | 124° |
| 2026-04-11 22:45 | -32.92761 | -61.74673 | 27053 ft | 373 kts | 124° |
| 2026-04-11 22:45 | -32.94229 | -61.72139 | 27054 ft | 373 kts | 124° |
| 2026-04-11 22:45 | -32.95695 | -61.69607 | 27052 ft | 373 kts | 124° |
| 2026-04-11 22:46 | -32.97166 | -61.67065 | 27000 ft | 375 kts | 124° |
| 2026-04-11 22:46 | -32.98410 | -61.64913 | 27006 ft | 374 kts | 124° |
| 2026-04-11 22:46 | -32.99877 | -61.62375 | 27002 ft | 373 kts | 124° |
| 2026-04-11 22:46 | -33.01354 | -61.59816 | 27002 ft | 372 kts | 124° |
| 2026-04-11 22:47 | -33.02824 | -61.57269 | 27002 ft | 370 kts | 124° |
| 2026-04-11 22:47 | -33.04284 | -61.54737 | 27002 ft | 369 kts | 124° |
| 2026-04-11 22:47 | -33.05736 | -61.52217 | 27002 ft | 367 kts | 124° |
| 2026-04-11 22:47 | -33.07181 | -61.49708 | 27001 ft | 366 kts | 124° |
| 2026-04-11 22:48 | -33.08613 | -61.47219 | 27000 ft | 364 kts | 124° |
| 2026-04-11 22:48 | -33.10036 | -61.44745 | 27000 ft | 361 kts | 124° |
| 2026-04-11 22:48 | -33.11462 | -61.42265 | 26993 ft | 359 kts | 124° |
| 2026-04-11 22:48 | -33.12871 | -61.39811 | 26993 ft | 357 kts | 124° |
| 2026-04-11 22:49 | -33.14270 | -61.37374 | 26991 ft | 355 kts | 124° |
| 2026-04-11 22:49 | -33.15660 | -61.34951 | 26993 ft | 354 kts | 124° |
| 2026-04-11 22:49 | -33.17041 | -61.32541 | 26986 ft | 352 kts | 124° |
| 2026-04-11 22:49 | -33.18415 | -61.30141 | 26988 ft | 351 kts | 124° |
| 2026-04-11 22:50 | -33.19787 | -61.27745 | 26988 ft | 350 kts | 124° |
| 2026-04-11 22:50 | -33.21163 | -61.25339 | 26989 ft | 349 kts | 124° |
| 2026-04-11 22:50 | -33.22524 | -61.22959 | 26990 ft | 348 kts | 124° |
| 2026-04-11 22:50 | -33.23884 | -61.20578 | 26990 ft | 348 kts | 124° |
| 2026-04-11 22:51 | -33.25241 | -61.18202 | 26989 ft | 348 kts | 124° |
| 2026-04-11 22:51 | -33.26598 | -61.15824 | 26989 ft | 347 kts | 124° |
| 2026-04-11 22:51 | -33.27953 | -61.13448 | 26989 ft | 348 kts | 124° |
| 2026-04-11 22:51 | -33.29304 | -61.11069 | 26990 ft | 348 kts | 124° |
| 2026-04-11 22:52 | -33.30674 | -61.08651 | 26990 ft | 348 kts | 124° |
| 2026-04-11 22:52 | -33.32029 | -61.06258 | 26990 ft | 349 kts | 124° |
| 2026-04-11 22:52 | -33.33384 | -61.03862 | 26991 ft | 349 kts | 124° |
| 2026-04-11 22:52 | -33.34742 | -61.01459 | 26991 ft | 350 kts | 124° |
| 2026-04-11 22:53 | -33.36105 | -60.99048 | 26992 ft | 351 kts | 123° |
| 2026-04-11 22:53 | -33.37466 | -60.96628 | 26992 ft | 352 kts | 123° |
| 2026-04-11 22:53 | -33.38829 | -60.94205 | 26994 ft | 352 kts | 123° |
| 2026-04-11 22:53 | -33.40204 | -60.91760 | 26995 ft | 353 kts | 123° |
| 2026-04-11 22:54 | -33.41571 | -60.89325 | 26995 ft | 354 kts | 123° |
| 2026-04-11 22:54 | -33.42939 | -60.86888 | 26995 ft | 355 kts | 123° |
| 2026-04-11 22:54 | -33.44309 | -60.84446 | 26995 ft | 355 kts | 123° |
| 2026-04-11 22:54 | -33.45702 | -60.81961 | 26995 ft | 356 kts | 123° |
| 2026-04-11 22:55 | -33.48450 | -60.77054 | 26996 ft | 357 kts | 123° |
| 2026-04-11 22:55 | -33.49839 | -60.74572 | 26996 ft | 357 kts | 123° |
| 2026-04-11 22:55 | -33.51220 | -60.72102 | 26996 ft | 357 kts | 123° |
| 2026-04-11 22:56 | -33.52597 | -60.69637 | 26996 ft | 357 kts | 123° |
| 2026-04-11 22:56 | -33.53902 | -60.67300 | 26997 ft | 358 kts | 123° |
| 2026-04-11 22:56 | -33.55276 | -60.64837 | 26997 ft | 358 kts | 123° |
| 2026-04-11 22:56 | -33.56657 | -60.62361 | 26997 ft | 358 kts | 123° |
| 2026-04-11 22:57 | -33.58043 | -60.59872 | 26997 ft | 358 kts | 123° |
| 2026-04-11 22:57 | -33.59436 | -60.57371 | 26998 ft | 359 kts | 123° |
| 2026-04-11 22:57 | -33.60820 | -60.54885 | 26998 ft | 359 kts | 123° |
| 2026-04-11 22:57 | -33.62201 | -60.52400 | 26975 ft | 360 kts | 123° |
| 2026-04-11 22:58 | -33.63600 | -60.49884 | 26629 ft | 369 kts | 123° |
| 2026-04-11 22:58 | -33.65019 | -60.47330 | 26277 ft | 371 kts | 123° |
| 2026-04-11 22:58 | -33.66446 | -60.44758 | 25917 ft | 370 kts | 123° |
| 2026-04-11 22:58 | -33.67869 | -60.42192 | 25554 ft | 369 kts | 123° |
| 2026-04-11 22:59 | -33.69298 | -60.39615 | 25188 ft | 368 kts | 123° |
| 2026-04-11 22:59 | -33.70706 | -60.37072 | 24826 ft | 367 kts | 123° |
| 2026-04-11 22:59 | -33.72085 | -60.34580 | 24470 ft | 365 kts | 122° |
| 2026-04-11 22:59 | -33.73119 | -60.32711 | 24194 ft | 364 kts | 122° |
| 2026-04-11 23:00 | -33.74243 | -60.30677 | 23894 ft | 363 kts | 122° |
| 2026-04-11 23:00 | -33.75563 | -60.28287 | 23540 ft | 361 kts | 122° |
| 2026-04-11 23:00 | -33.76945 | -60.25784 | 23168 ft | 359 kts | 122° |
| 2026-04-11 23:00 | -33.78328 | -60.23277 | 22794 ft | 358 kts | 122° |
| 2026-04-11 23:01 | -33.79691 | -60.20804 | 22422 ft | 355 kts | 122° |
| 2026-04-11 23:01 | -33.81049 | -60.18340 | 22050 ft | 353 kts | 122° |
| 2026-04-11 23:01 | -33.82402 | -60.15882 | 21678 ft | 351 kts | 122° |
| 2026-04-11 23:01 | -33.83741 | -60.13448 | 21307 ft | 349 kts | 122° |
| 2026-04-11 23:02 | -33.85094 | -60.11026 | 20935 ft | 347 kts | 122° |
| 2026-04-11 23:02 | -33.86434 | -60.08633 | 20565 ft | 345 kts | 122° |
| 2026-04-11 23:02 | -33.87329 | -60.07035 | 20316 ft | 344 kts | 122° |
| 2026-04-11 23:02 | -33.89097 | -60.03875 | 19822 ft | 341 kts | 122° |
| 2026-04-11 23:03 | -33.90410 | -60.01524 | 19453 ft | 339 kts | 122° |
| 2026-04-11 23:03 | -33.91717 | -59.99185 | 19083 ft | 337 kts | 122° |
| 2026-04-11 23:03 | -33.93013 | -59.96864 | 18715 ft | 335 kts | 122° |
| 2026-04-11 23:03 | -33.94303 | -59.94552 | 18345 ft | 333 kts | 122° |
| 2026-04-11 23:04 | -33.95574 | -59.92248 | 17977 ft | 331 kts | 122° |
| 2026-04-11 23:04 | -33.96841 | -59.89930 | 17605 ft | 329 kts | 122° |
| 2026-04-11 23:04 | -33.98088 | -59.87641 | 17226 ft | 327 kts | 121° |
| 2026-04-11 23:04 | -33.99327 | -59.85364 | 16779 ft | 326 kts | 122° |
| 2026-04-11 23:05 | -34.00558 | -59.83101 | 16331 ft | 324 kts | 122° |
| 2026-04-11 23:05 | -34.01780 | -59.80851 | 15886 ft | 322 kts | 122° |
| 2026-04-11 23:05 | -34.02996 | -59.78611 | 15443 ft | 320 kts | 122° |
| 2026-04-11 23:05 | -34.04201 | -59.76391 | 15003 ft | 317 kts | 122° |
| 2026-04-11 23:06 | -34.05398 | -59.74182 | 14624 ft | 311 kts | 122° |
| 2026-04-11 23:06 | -34.06572 | -59.72016 | 14247 ft | 307 kts | 122° |
| 2026-04-11 23:06 | -34.07728 | -59.69882 | 13873 ft | 304 kts | 122° |
| 2026-04-11 23:06 | -34.08870 | -59.67771 | 13500 ft | 301 kts | 122° |
| 2026-04-11 23:07 | -34.10001 | -59.65679 | 13127 ft | 298 kts | 122° |
| 2026-04-11 23:07 | -34.11126 | -59.63598 | 12750 ft | 295 kts | 122° |
| 2026-04-11 23:07 | -34.12252 | -59.61515 | 12370 ft | 293 kts | 122° |
| 2026-04-11 23:07 | -34.13371 | -59.59442 | 11992 ft | 292 kts | 122° |
| 2026-04-11 23:08 | -34.14482 | -59.57385 | 11615 ft | 291 kts | 122° |
| 2026-04-11 23:08 | -34.15582 | -59.55347 | 11241 ft | 290 kts | 122° |
| 2026-04-11 23:08 | -34.16687 | -59.53297 | 10864 ft | 289 kts | 122° |
| 2026-04-11 23:08 | -34.17779 | -59.51271 | 10490 ft | 288 kts | 122° |
| 2026-04-11 23:09 | -34.18871 | -59.49242 | 10115 ft | 288 kts | 122° |
| 2026-04-11 23:09 | -34.19960 | -59.47218 | 9741 ft | 287 kts | 122° |
| 2026-04-11 23:09 | -34.21058 | -59.45177 | 9362 ft | 286 kts | 122° |
| 2026-04-11 23:09 | -34.22141 | -59.43162 | 8987 ft | 285 kts | 122° |
| 2026-04-11 23:10 | -34.23222 | -59.41151 | 8611 ft | 284 kts | 122° |
| 2026-04-11 23:10 | -34.24292 | -59.39157 | 8240 ft | 283 kts | 122° |
| 2026-04-11 23:10 | -34.25363 | -59.37163 | 7888 ft | 281 kts | 122° |
| 2026-04-11 23:10 | -34.26421 | -59.35190 | 7536 ft | 279 kts | 122° |
| 2026-04-11 23:11 | -34.27464 | -59.33243 | 7179 ft | 274 kts | 122° |
| 2026-04-11 23:11 | -34.28496 | -59.31317 | 6819 ft | 270 kts | 122° |
| 2026-04-11 23:11 | -34.29506 | -59.29430 | 6465 ft | 266 kts | 122° |
| 2026-04-11 23:11 | -34.30503 | -59.27568 | 6112 ft | 263 kts | 122° |
| 2026-04-11 23:12 | -34.31498 | -59.25707 | 5758 ft | 261 kts | 122° |
| 2026-04-11 23:12 | -34.32478 | -59.23874 | 5408 ft | 259 kts | 122° |
| 2026-04-11 23:12 | -34.33452 | -59.22051 | 5058 ft | 258 kts | 122° |
| 2026-04-11 23:12 | -34.34419 | -59.20242 | 4710 ft | 257 kts | 122° |
| 2026-04-11 23:13 | -34.35390 | -59.18422 | 4359 ft | 256 kts | 122° |
| 2026-04-11 23:13 | -34.36352 | -59.16617 | 4012 ft | 255 kts | 122° |
| 2026-04-11 23:13 | -34.37301 | -59.14837 | 3731 ft | 251 kts | 122° |
| 2026-04-11 23:13 | -34.38247 | -59.13061 | 3476 ft | 252 kts | 122° |
| 2026-04-11 23:14 | -34.39200 | -59.11270 | 3240 ft | 256 kts | 122° |
| 2026-04-11 23:14 | -34.40168 | -59.09454 | 3007 ft | 258 kts | 122° |
| 2026-04-11 23:14 | -34.41130 | -59.07645 | 2956 ft | 252 kts | 122° |
| 2026-04-11 23:14 | -34.42075 | -59.05869 | 2962 ft | 249 kts | 122° |
| 2026-04-11 23:15 | -34.43010 | -59.04110 | 2967 ft | 249 kts | 122° |
| 2026-04-11 23:15 | -34.43948 | -59.02346 | 2966 ft | 249 kts | 122° |
| 2026-04-11 23:15 | -34.44887 | -59.00576 | 2966 ft | 249 kts | 122° |
| 2026-04-11 23:15 | -34.45829 | -58.98803 | 2966 ft | 249 kts | 122° |
| 2026-04-11 23:16 | -34.46768 | -58.97034 | 2966 ft | 249 kts | 122° |
| 2026-04-11 23:16 | -34.47706 | -58.95265 | 2966 ft | 249 kts | 122° |
| 2026-04-11 23:16 | -34.48653 | -58.93477 | 2946 ft | 249 kts | 122° |
| 2026-04-11 23:16 | -34.49572 | -58.91737 | 2864 ft | 242 kts | 124° |
| 2026-04-11 23:17 | -34.50468 | -58.90051 | 2775 ft | 236 kts | 124° |
| 2026-04-11 23:17 | -34.51340 | -58.88404 | 2737 ft | 229 kts | 124° |
| 2026-04-11 23:17 | -34.52189 | -58.86799 | 2722 ft | 223 kts | 124° |
| 2026-04-11 23:17 | -34.53016 | -58.85235 | 2708 ft | 219 kts | 124° |
| 2026-04-11 23:18 | -34.53828 | -58.83699 | 2697 ft | 215 kts | 124° |
| 2026-04-11 23:18 | -34.54633 | -58.82175 | 2687 ft | 211 kts | 124° |
| 2026-04-11 23:18 | -34.55419 | -58.80686 | 2680 ft | 209 kts | 124° |
| 2026-04-11 23:18 | -34.56105 | -58.79153 | 2627 ft | 206 kts | 106° |
| 2026-04-11 23:19 | -34.56149 | -58.77460 | 2516 ft | 196 kts | 90° |
| 2026-04-11 23:19 | -34.56074 | -58.75846 | 2386 ft | 188 kts | 88° |
| 2026-04-11 23:19 | -34.55986 | -58.74284 | 2243 ft | 186 kts | 88° |
| 2026-04-11 23:19 | -34.55893 | -58.72724 | 2112 ft | 186 kts | 88° |
| 2026-04-11 23:20 | -34.55696 | -58.71162 | 1962 ft | 188 kts | 67° |
| 2026-04-11 23:20 | -34.54857 | -58.69992 | 1978 ft | 181 kts | 45° |
| 2026-04-11 23:20 | -34.53938 | -58.68979 | 1955 ft | 177 kts | 44° |
| 2026-04-11 23:20 | -34.53037 | -58.67992 | 1950 ft | 172 kts | 44° |
| 2026-04-11 23:21 | -34.52134 | -58.67003 | 1740 ft | 179 kts | 44° |
| 2026-04-11 23:21 | -34.51224 | -58.66008 | 1488 ft | 170 kts | 44° |
| 2026-04-11 23:21 | -34.50392 | -58.65105 | 1248 ft | 153 kts | 44° |
| 2026-04-11 23:21 | -34.49650 | -58.64234 | 1052 ft | 144 kts | 49° |
| 2026-04-11 23:22 | -34.48996 | -58.63382 | 927 ft | 131 kts | 51° |
| 2026-04-11 23:22 | -34.48422 | -58.62569 | 756 ft | 121 kts | 49° |
| 2026-04-11 23:22 | -34.47837 | -58.61891 | 602 ft | 115 kts | 47° |
| 2026-04-11 23:22 | -34.47268 | -58.61227 | 462 ft | 113 kts | 48° |
| 2026-04-11 23:23 | -34.46711 | -58.60559 | 274 ft | 113 kts | 49° |
| 2026-04-11 23:23 | -34.46157 | -58.59921 | 124 ft | 108 kts | 47° |
| 2026-04-11 23:23 | -34.45647 | -58.59321 | 13 ft | 92 kts | 46° |
| 2026-04-11 23:23 | -34.45319 | -58.58929 | 12 ft | 48 kts | 45° |
| 2026-04-11 23:24 | -34.45114 | -58.58690 | 12 ft | 34 kts | 45° |
| 2026-04-11 23:24 | -34.44966 | -58.58512 | 12 ft | 26 kts | 45° |
| 2026-04-11 23:24 | -34.44861 | -58.58388 | 12 ft | 13 kts | 54° |
| 2026-04-11 23:24 | -34.44888 | -58.58290 | 13 ft | 11 kts | 146° |
| 2026-04-11 23:25 | -34.44921 | -58.58265 | 12 ft | 8 kts | 148° |
| 2026-04-11 23:25 | -34.44987 | -58.58217 | 12 ft | 13 kts | 149° |
| 2026-04-11 23:25 | -34.45070 | -58.58156 | 12 ft | 14 kts | 149° |
| 2026-04-11 23:25 | -34.45127 | -58.58116 | 12 ft | 6 kts | 150° |
| 2026-04-11 23:26 | -34.45158 | -58.58095 | 12 ft | 5 kts | 150° |
| 2026-04-11 23:26 | -34.45193 | -58.58070 | 12 ft | 7 kts | 149° |
| 2026-04-11 23:26 | -34.45244 | -58.58032 | 12 ft | 10 kts | 149° |
| 2026-04-11 23:26 | -34.45302 | -58.57990 | 12 ft | 6 kts | 150° |
| 2026-04-11 23:27 | -34.45340 | -58.57995 | 12 ft | 8 kts | 253° |
| 2026-04-11 23:27 | -34.45370 | -58.58071 | 12 ft | 12 kts | 242° |
| 2026-04-11 23:27 | -34.45409 | -58.58162 | 12 ft | 5 kts | 244° |
| 2026-04-11 23:27 | -34.45433 | -58.58219 | 12 ft | 10 kts | 243° |
| 2026-04-11 23:28 | -34.45457 | -58.58274 | 12 ft | 13 kts | 243° |
| 2026-04-11 23:28 | -34.45500 | -58.58374 | 12 ft | 5 kts | 238° |
| 2026-04-11 23:28 | -34.45524 | -58.58366 | 12 ft | 2 kts | 152° |
| 2026-04-11 23:28 | -34.45532 | -58.58361 | 12 ft | 2 kts | 152° |
| 2026-04-11 23:29 | -34.45536 | -58.58359 | 12 ft | 0 kts | 152° |
| 2026-04-11 23:29 | -34.45537 | -58.58358 | 12 ft | 0 kts | 153° |